Terminal Aerodrome Forecast
Issued by NWS

Home | Current Version | Previous Version | Text Only | Print | Product List | Glossary On
Versions: 1 2 3 4 5 6 7 8 9 10 11 12 13 14 15 16 17 18
000
FTAK31 PANC 231727
TAFADL
TAF
PADL 231727Z 2318/2418 24011KT P6SM FEW060 SCT250
     FM232000 20011G20KT P6SM FEW050 BKN150
     FM240300 20014G20KT 5SM -RA BKN025
     FM240600 19005KT 3SM -RA BKN015 OVC050=

USA.gov is the U.S. government's official web portal to all federal, state and local government web resources and services.